createdAt,value
2023-10-08T00:01:07.428Z,20.33
2023-10-08T00:03:34.559Z,18.02
2023-10-08T00:06:07.941Z,20.40
2023-10-08T00:08:34.949Z,17.52
2023-10-08T00:11:08.175Z,19.23
2023-10-08T00:13:41.179Z,13.07
2023-10-08T00:16:12.314Z,8.35
2023-10-08T00:18:42.354Z,3.80
2023-10-08T00:21:11.790Z,4.13
2023-10-08T00:23:43.192Z,3.08
2023-10-08T00:26:10.665Z,3.42
2023-10-08T00:28:37.609Z,2.55
2023-10-08T00:31:13.490Z,1.77
2023-10-08T00:33:45.317Z,2.03
2023-10-08T00:36:19.992Z,3.05
2023-10-08T00:38:59.985Z,3.25
2023-10-08T00:41:31.554Z,2.63
2023-10-08T00:44:00.636Z,2.95
2023-10-08T00:46:37.241Z,3.28
2023-10-08T00:49:33.541Z,2.72
2023-10-08T00:52:09.758Z,3.53
2023-10-08T00:54:49.188Z,3.33
2023-10-08T00:57:22.102Z,4.65
2023-10-08T00:59:56.259Z,8.65
2023-10-08T01:02:29.700Z,10.65
2023-10-08T01:04:57.040Z,5.75
2023-10-08T01:07:26.218Z,4.22
2023-10-08T01:09:55.023Z,4.30
2023-10-08T01:12:23.251Z,2.45
2023-10-08T01:14:50.674Z,5.22
2023-10-08T01:17:20.542Z,2.47
2023-10-08T01:19:57.805Z,3.20
2023-10-08T01:22:26.590Z,0.90
2023-10-08T01:24:53.169Z,2.88
2023-10-08T01:27:25.191Z,2.13
2023-10-08T01:29:53.428Z,2.05
2023-10-08T01:32:23.903Z,0.50
2023-10-08T01:34:50.896Z,0.60
2023-10-08T01:37:19.006Z,0.70
2023-10-08T01:39:51.137Z,1.45
2023-10-08T01:42:22.278Z,0.47
2023-10-08T01:44:51.678Z,0.93
2023-10-08T01:47:19.676Z,1.80
2023-10-08T01:49:47.966Z,1.90
2023-10-08T01:52:24.080Z,0.70
2023-10-08T01:54:51.238Z,1.08
2023-10-08T01:57:18.440Z,2.00
2023-10-08T01:59:45.473Z,1.23
2023-10-08T02:02:13.910Z,1.20
2023-10-08T02:04:41.132Z,2.65
2023-10-08T02:07:14.502Z,3.33
2023-10-08T02:09:42.458Z,0.80
2023-10-08T02:12:09.871Z,1.25
2023-10-08T02:14:37.069Z,0.70
2023-10-08T02:17:07.812Z,1.52
2023-10-08T02:19:36.044Z,1.85
2023-10-08T02:22:03.740Z,2.03
2023-10-08T02:24:31.805Z,0.93
2023-10-08T02:26:59.060Z,1.08
2023-10-08T02:29:27.213Z,0.50
2023-10-08T02:31:56.695Z,0.60
2023-10-08T02:34:23.498Z,1.92
2023-10-08T02:36:52.846Z,0.90
2023-10-08T02:39:26.061Z,1.95
2023-10-08T02:41:54.022Z,1.35
2023-10-08T02:44:22.015Z,1.23
2023-10-08T02:46:50.406Z,0.60
2023-10-08T02:49:21.620Z,1.83
2023-10-08T02:51:52.145Z,1.50
2023-10-08T02:54:19.366Z,2.25
2023-10-08T02:56:47.661Z,2.40
2023-10-08T02:59:14.757Z,1.33
2023-10-08T03:01:44.008Z,4.78
2023-10-08T03:04:20.514Z,3.22
2023-10-08T03:06:56.250Z,2.05
2023-10-08T03:09:33.457Z,2.78
2023-10-08T03:12:00.203Z,2.10
2023-10-08T03:14:27.577Z,1.08
2023-10-08T03:17:08.147Z,1.52
2023-10-08T03:19:36.678Z,1.05
2023-10-08T03:22:05.723Z,1.40
2023-10-08T03:24:38.703Z,1.92
2023-10-08T03:27:07.744Z,4.70
2023-10-08T03:29:42.623Z,3.65
2023-10-08T03:32:15.220Z,2.42
2023-10-08T03:34:47.239Z,4.22
2023-10-08T03:39:53.204Z,2.13
2023-10-08T03:42:26.792Z,1.03
2023-10-08T03:44:55.053Z,2.33
2023-10-08T03:47:23.934Z,2.15
2023-10-08T03:49:52.422Z,2.58
2023-10-08T03:52:27.460Z,3.28
2023-10-08T03:55:14.968Z,1.95
2023-10-08T03:57:45.428Z,2.53
2023-10-08T04:00:16.005Z,1.80
2023-10-08T04:02:47.820Z,1.95
2023-10-08T04:07:59.778Z,3.10
2023-10-08T04:10:39.973Z,3.13
2023-10-08T04:13:10.092Z,3.50
2023-10-08T04:15:44.329Z,5.32
2023-10-08T04:18:12.503Z,6.53
2023-10-08T04:20:39.329Z,10.27
2023-10-08T04:23:19.886Z,5.32
2023-10-08T04:25:48.294Z,2.55
2023-10-08T04:28:21.531Z,2.35
2023-10-08T04:30:49.418Z,5.20
2023-10-08T04:33:16.887Z,4.43
2023-10-08T04:35:56.459Z,6.30
2023-10-08T04:38:27.009Z,7.30
2023-10-08T04:40:54.175Z,6.93
2023-10-08T04:43:29.270Z,4.63
2023-10-08T04:45:59.586Z,7.60
2023-10-08T04:48:28.757Z,7.95
2023-10-08T04:51:02.072Z,12.40
2023-10-08T04:53:42.166Z,6.53
2023-10-08T04:56:18.221Z,8.77
2023-10-08T04:58:49.389Z,7.22
2023-10-08T05:01:18.669Z,19.02
2023-10-08T05:03:59.411Z,8.75
2023-10-08T05:06:37.291Z,7.88
2023-10-08T05:09:22.372Z,12.15
2023-10-08T05:11:53.737Z,11.30
2023-10-08T05:14:35.786Z,8.15
2023-10-08T05:19:49.572Z,10.30
2023-10-08T05:22:29.523Z,9.35
2023-10-08T05:25:09.473Z,10.98
2023-10-08T05:27:49.637Z,10.85
2023-10-08T05:30:29.733Z,15.85
2023-10-08T05:33:15.704Z,12.23
2023-10-08T05:35:43.527Z,18.10
2023-10-08T05:38:23.741Z,12.05
2023-10-08T05:40:57.995Z,11.13
2023-10-08T05:43:55.221Z,11.25
2023-10-08T05:46:25.312Z,8.80
2023-10-08T05:49:06.307Z,9.82
2023-10-08T05:51:48.792Z,8.07
2023-10-08T05:54:28.370Z,7.25
2023-10-08T05:57:15.543Z,9.32
2023-10-08T05:59:56.457Z,10.13
2023-10-08T06:02:47.345Z,9.63
2023-10-08T06:05:14.713Z,7.22
2023-10-08T06:07:53.859Z,6.30
2023-10-08T06:10:33.054Z,10.40
2023-10-08T06:13:10.669Z,8.32
2023-10-08T06:15:49.868Z,5.57
2023-10-08T06:18:19.779Z,6.03
2023-10-08T06:20:47.659Z,5.85
2023-10-08T06:23:20.200Z,9.70
2023-10-08T06:26:06.724Z,8.57
2023-10-08T06:28:36.955Z,7.30
2023-10-08T06:31:08.021Z,9.65
2023-10-08T06:33:35.215Z,7.30
2023-10-08T06:36:04.294Z,12.23
2023-10-08T06:38:32.316Z,6.90
2023-10-08T06:41:18.675Z,6.03
2023-10-08T06:44:15.549Z,9.93
2023-10-08T06:46:43.281Z,8.85
2023-10-08T06:51:34.855Z,15.75
2023-10-08T06:54:04.068Z,12.25
2023-10-08T06:56:32.543Z,11.45
2023-10-08T06:59:00.583Z,10.52
2023-10-08T07:01:30.182Z,10.10
2023-10-08T07:04:07.629Z,7.22
2023-10-08T07:06:38.809Z,11.20
2023-10-08T07:09:06.490Z,11.00
2023-10-08T07:11:40.412Z,13.40
2023-10-08T07:14:07.150Z,14.98
2023-10-08T07:16:34.186Z,10.88
2023-10-08T07:19:06.799Z,10.80
2023-10-08T07:21:45.956Z,13.45
2023-10-08T07:24:18.634Z,16.23
2023-10-08T07:26:48.744Z,16.77
2023-10-08T07:29:18.563Z,19.40
2023-10-08T07:31:54.174Z,19.08
2023-10-08T07:34:24.245Z,18.33
2023-10-08T07:36:55.279Z,19.00
2023-10-08T07:41:36.235Z,21.30
2023-10-08T07:44:02.928Z,19.70
2023-10-08T07:46:29.517Z,20.92
2023-10-08T07:48:56.537Z,22.10
2023-10-08T07:51:23.220Z,17.40
2023-10-08T07:53:50.855Z,11.82
2023-10-08T07:56:19.101Z,14.43
2023-10-08T07:58:45.910Z,13.30
2023-10-08T08:01:14.880Z,11.27
2023-10-08T08:03:47.141Z,15.80
2023-10-08T08:06:14.536Z,12.88
2023-10-08T08:08:41.221Z,18.95
2023-10-08T08:11:13.028Z,13.90
2023-10-08T08:13:43.811Z,14.23
2023-10-08T08:16:19.054Z,11.07
2023-10-08T08:18:50.839Z,9.18
2023-10-08T08:21:18.412Z,10.70
2023-10-08T08:23:48.973Z,14.40
2023-10-08T08:26:29.964Z,13.40
2023-10-08T08:28:58.402Z,11.77
2023-10-08T08:31:28.630Z,8.25
2023-10-08T08:33:57.778Z,19.50
2023-10-08T08:36:25.161Z,10.70
2023-10-08T08:38:52.612Z,11.20
2023-10-08T08:41:21.780Z,8.90
2023-10-08T08:43:57.909Z,9.27
2023-10-08T08:46:38.670Z,9.05
2023-10-08T08:49:08.858Z,8.23
2023-10-08T08:51:37.048Z,7.35
2023-10-08T08:54:10.187Z,8.45
2023-10-08T08:56:39.617Z,7.88
2023-10-08T08:59:06.451Z,7.00
2023-10-08T09:01:34.436Z,9.75
2023-10-08T09:04:03.067Z,8.13
2023-10-08T09:06:30.041Z,8.23
2023-10-08T09:09:13.171Z,8.93
2023-10-08T09:11:44.249Z,11.00
2023-10-08T09:14:12.046Z,7.93
2023-10-08T09:16:39.593Z,6.25
2023-10-08T09:19:13.294Z,6.75
2023-10-08T09:21:40.539Z,6.88
2023-10-08T09:24:12.508Z,6.70
2023-10-08T09:26:41.202Z,8.90
2023-10-08T09:29:09.099Z,5.55
2023-10-08T09:31:36.773Z,7.38
2023-10-08T09:34:07.559Z,4.40
2023-10-08T09:36:34.546Z,4.75
2023-10-08T09:39:05.832Z,5.25
2023-10-08T09:41:33.549Z,15.60
2023-10-08T09:44:00.633Z,4.85
2023-10-08T09:46:37.942Z,4.97
2023-10-08T09:49:09.038Z,4.15
2023-10-08T09:51:40.756Z,6.07
2023-10-08T09:54:26.717Z,9.13
2023-10-08T09:56:56.166Z,6.57
2023-10-08T09:59:23.623Z,6.65
2023-10-08T10:01:51.780Z,4.25
2023-10-08T10:04:25.894Z,6.88
2023-10-08T10:06:53.566Z,7.05
2023-10-08T10:09:26.604Z,6.13
2023-10-08T10:11:58.658Z,3.75
2023-10-08T10:14:26.703Z,6.00
2023-10-08T10:17:31.984Z,5.43
2023-10-08T10:20:12.136Z,5.50
2023-10-08T10:22:39.093Z,4.93
2023-10-08T10:25:20.439Z,6.80
2023-10-08T10:27:56.662Z,2.53
2023-10-08T10:30:25.063Z,4.10
2023-10-08T10:32:55.975Z,4.35
2023-10-08T10:35:22.875Z,4.68
2023-10-08T10:37:56.800Z,7.10
2023-10-08T10:40:40.148Z,10.63
2023-10-08T10:43:17.539Z,6.00
2023-10-08T10:45:48.721Z,3.50
2023-10-08T10:48:21.781Z,3.37
2023-10-08T10:51:05.671Z,4.32
2023-10-08T10:53:54.908Z,9.20
2023-10-08T10:56:30.656Z,6.10
2023-10-08T10:59:02.988Z,7.32
2023-10-08T11:01:45.806Z,4.88
2023-10-08T11:04:17.197Z,4.60
2023-10-08T11:06:45.889Z,3.40
2023-10-08T11:09:17.468Z,3.28
2023-10-08T11:11:52.482Z,1.02
2023-10-08T11:14:20.130Z,5.80
2023-10-08T11:16:49.043Z,2.20
2023-10-08T11:19:17.060Z,2.00
2023-10-08T11:21:51.512Z,2.38
2023-10-08T11:24:34.545Z,7.68
2023-10-08T11:27:23.022Z,2.72
2023-10-08T11:30:12.690Z,3.47
2023-10-08T11:32:39.978Z,3.50
2023-10-08T11:35:17.433Z,2.72
2023-10-08T11:37:52.901Z,1.45
2023-10-08T11:40:30.427Z,2.33
2023-10-08T11:43:00.447Z,2.63
2023-10-08T11:45:28.305Z,3.75
2023-10-08T11:47:58.693Z,1.33
2023-10-08T11:50:36.205Z,3.05
2023-10-08T11:53:04.616Z,1.33
2023-10-08T11:55:36.761Z,1.85
2023-10-08T11:58:12.266Z,2.55
2023-10-08T12:00:47.903Z,1.65
2023-10-08T12:03:21.221Z,6.22
2023-10-08T12:05:50.732Z,2.17
2023-10-08T12:08:21.762Z,3.53
2023-10-08T12:10:49.368Z,4.35
2023-10-08T12:13:20.120Z,2.13
2023-10-08T12:15:48.463Z,2.92
2023-10-08T12:18:42.123Z,2.05
2023-10-08T12:21:11.651Z,3.25
2023-10-08T12:23:39.002Z,1.65
2023-10-08T12:26:08.940Z,3.17
2023-10-08T12:28:37.493Z,3.05
2023-10-08T12:31:07.598Z,3.38
2023-10-08T12:33:35.206Z,5.20
2023-10-08T12:36:12.051Z,6.70
2023-10-08T12:38:42.393Z,3.03
2023-10-08T12:41:15.574Z,4.47
2023-10-08T12:43:46.105Z,4.70
2023-10-08T12:46:19.548Z,3.22
2023-10-08T12:48:49.725Z,3.75
2023-10-08T12:51:17.054Z,3.80
2023-10-08T12:53:51.637Z,1.70
2023-10-08T12:56:22.682Z,2.90
2023-10-08T12:58:49.722Z,6.67
2023-10-08T13:01:20.694Z,3.22
2023-10-08T13:03:50.651Z,1.30
2023-10-08T13:06:31.740Z,6.95
2023-10-08T13:08:59.984Z,4.40
2023-10-08T13:11:30.521Z,2.45
2023-10-08T13:13:58.386Z,2.45
2023-10-08T13:16:27.263Z,3.65
2023-10-08T13:18:57.834Z,3.92
2023-10-08T13:21:27.136Z,4.28
2023-10-08T13:23:53.850Z,3.05
2023-10-08T13:26:23.929Z,5.00
2023-10-08T13:28:50.792Z,3.88
2023-10-08T13:31:18.981Z,2.65
2023-10-08T13:33:50.108Z,3.15
2023-10-08T13:36:19.732Z,3.17
2023-10-08T13:38:50.348Z,3.25
2023-10-08T13:41:17.708Z,2.17
2023-10-08T13:43:49.479Z,5.03
2023-10-08T13:46:21.039Z,9.02
2023-10-08T13:48:51.296Z,2.20
2023-10-08T13:51:29.395Z,0.98
2023-10-08T13:54:00.848Z,1.40
2023-10-08T13:56:32.087Z,1.75
2023-10-08T13:59:13.432Z,1.67
2023-10-08T14:01:44.544Z,4.67
2023-10-08T14:04:11.646Z,1.85
2023-10-08T14:06:42.116Z,2.92
2023-10-08T14:09:10.367Z,3.92
2023-10-08T14:11:37.337Z,2.30
2023-10-08T14:14:08.924Z,3.33
2023-10-08T14:16:36.253Z,2.45
2023-10-08T14:19:05.845Z,3.33
2023-10-08T14:21:37.947Z,2.47
2023-10-08T14:24:06.572Z,1.25
2023-10-08T14:26:37.547Z,1.63
2023-10-08T14:29:15.901Z,3.13
2023-10-08T14:31:45.597Z,2.72
2023-10-08T14:34:18.170Z,2.60
2023-10-08T14:37:08.479Z,2.13
2023-10-08T14:39:54.406Z,0.73
2023-10-08T14:42:40.323Z,1.17
2023-10-08T14:45:12.153Z,0.85
2023-10-08T14:47:39.622Z,5.45
2023-10-08T14:50:17.098Z,3.03
2023-10-08T14:52:45.157Z,3.33
2023-10-08T14:55:14.642Z,2.10
2023-10-08T14:57:43.147Z,1.60
2023-10-08T15:00:11.946Z,3.70
2023-10-08T15:02:39.747Z,1.98
2023-10-08T15:05:07.317Z,1.02
2023-10-08T15:07:35.644Z,3.15
2023-10-08T15:10:02.323Z,3.53
2023-10-08T15:12:29.223Z,4.38
2023-10-08T15:14:55.914Z,5.03
2023-10-08T15:17:22.836Z,2.40
2023-10-08T15:19:49.475Z,4.15
2023-10-08T15:22:16.441Z,1.70
2023-10-08T15:24:44.623Z,4.53
2023-10-08T15:27:11.854Z,1.30
2023-10-08T15:29:38.774Z,2.97
2023-10-08T15:32:06.024Z,1.67
2023-10-08T15:34:37.679Z,2.95
2023-10-08T15:37:06.233Z,2.45
2023-10-08T15:39:32.834Z,1.38
2023-10-08T15:41:59.759Z,2.20
2023-10-08T15:44:26.410Z,2.53
2023-10-08T15:46:53.269Z,4.43
2023-10-08T15:49:20.637Z,4.93
2023-10-08T15:51:48.100Z,3.78
2023-10-08T15:54:15.177Z,4.68
2023-10-08T15:59:00.817Z,3.65
2023-10-08T16:01:27.707Z,3.65
2023-10-08T16:03:54.747Z,6.95
2023-10-08T16:06:21.844Z,7.13
2023-10-08T16:08:49.215Z,4.35
2023-10-08T16:11:16.380Z,5.95
2023-10-08T16:13:44.084Z,9.82
2023-10-08T16:16:11.086Z,5.07
2023-10-08T16:18:39.438Z,4.47
2023-10-08T16:21:10.726Z,6.32
2023-10-08T16:23:37.677Z,6.33
2023-10-08T16:26:06.741Z,5.55
2023-10-08T16:28:33.933Z,5.90
2023-10-08T16:31:00.697Z,5.70
2023-10-08T16:33:30.998Z,6.80
2023-10-08T16:35:59.930Z,8.82
2023-10-08T16:38:26.850Z,7.45
2023-10-08T16:40:53.756Z,4.72
2023-10-08T16:43:20.500Z,8.57
2023-10-08T16:45:47.433Z,5.13
2023-10-08T16:48:16.951Z,7.55
2023-10-08T16:50:44.578Z,5.85
2023-10-08T16:53:11.382Z,6.07
2023-10-08T16:55:38.078Z,10.82
2023-10-08T16:58:06.074Z,6.32
2023-10-08T17:00:34.612Z,5.60
2023-10-08T17:03:01.668Z,8.35
2023-10-08T17:05:28.885Z,9.15
2023-10-08T17:07:56.922Z,8.15
2023-10-08T17:10:23.726Z,10.20
2023-10-08T17:12:52.890Z,10.00
2023-10-08T17:15:20.271Z,9.88
2023-10-08T17:17:47.232Z,8.15
2023-10-08T17:20:18.430Z,13.57
2023-10-08T17:22:46.512Z,8.00
2023-10-08T17:25:13.965Z,8.10
2023-10-08T17:27:47.951Z,12.05
2023-10-08T17:30:20.205Z,8.38
2023-10-08T17:32:49.264Z,6.75
2023-10-08T17:35:17.627Z,11.30
2023-10-08T17:37:47.972Z,8.13
2023-10-08T17:40:15.601Z,8.95
2023-10-08T17:42:42.969Z,8.75
2023-10-08T17:45:16.888Z,14.77
2023-10-08T17:47:47.015Z,7.60
2023-10-08T17:50:13.849Z,11.32
2023-10-08T17:52:40.463Z,17.73
2023-10-08T17:55:07.925Z,16.35
2023-10-08T17:57:35.269Z,15.70
2023-10-08T18:00:02.537Z,17.30
2023-10-08T18:02:41.069Z,16.42
2023-10-08T18:05:13.858Z,18.42
2023-10-08T18:07:40.523Z,9.73
2023-10-08T18:12:22.522Z,12.50
2023-10-08T18:14:49.282Z,19.08
2023-10-08T18:17:16.636Z,11.02
2023-10-08T18:19:46.684Z,10.88
2023-10-08T18:22:13.347Z,14.85
2023-10-08T18:24:39.974Z,14.00
2023-10-08T18:27:10.921Z,35.53
2023-10-08T18:29:37.653Z,30.52
2023-10-08T18:32:07.349Z,42.63
2023-10-08T18:34:35.590Z,30.10
2023-10-08T18:37:03.364Z,32.83
2023-10-08T18:39:30.573Z,27.23
2023-10-08T18:41:57.372Z,21.70
2023-10-08T18:44:26.986Z,27.80
2023-10-08T18:46:53.679Z,30.80
2023-10-08T18:49:20.345Z,28.00
2023-10-08T18:51:47.132Z,19.15
2023-10-08T18:54:14.743Z,25.92
2023-10-08T18:56:43.026Z,31.85
2023-10-08T18:59:10.521Z,25.67
2023-10-08T19:01:39.179Z,28.92
2023-10-08T19:04:10.320Z,24.40
2023-10-08T19:06:37.137Z,16.37
2023-10-08T19:09:06.492Z,20.10
2023-10-08T19:11:34.287Z,21.38
2023-10-08T19:14:02.388Z,11.85
2023-10-08T19:16:29.268Z,15.35
2023-10-08T19:18:57.027Z,21.30
2023-10-08T19:21:30.168Z,19.13
2023-10-08T19:23:58.633Z,23.30
2023-10-08T19:26:29.315Z,38.38
2023-10-08T19:28:56.829Z,39.92
2023-10-08T19:31:23.890Z,38.47
2023-10-08T19:36:06.322Z,35.92
2023-10-08T19:38:33.058Z,35.30
2023-10-08T19:43:30.217Z,32.97
2023-10-08T19:45:58.677Z,32.30
2023-10-08T19:48:25.871Z,26.27
2023-10-08T19:50:54.923Z,32.28
2023-10-08T19:53:21.920Z,29.13
2023-10-08T19:55:53.278Z,31.17
2023-10-08T19:58:22.172Z,26.60
2023-10-08T20:00:51.038Z,33.90
2023-10-08T20:03:20.988Z,31.42
2023-10-08T20:05:51.039Z,35.97
2023-10-08T20:08:17.737Z,32.55
2023-10-08T20:10:45.457Z,33.10
2023-10-08T20:13:13.620Z,27.00
2023-10-08T20:15:40.412Z,28.20
2023-10-08T20:18:07.589Z,34.13
2023-10-08T20:20:36.749Z,40.60
2023-10-08T20:23:05.907Z,31.20
2023-10-08T20:25:41.846Z,29.45
2023-10-08T20:28:10.554Z,27.08
2023-10-08T20:30:41.105Z,25.30
2023-10-08T20:33:11.628Z,32.78
2023-10-08T20:35:39.063Z,31.88
2023-10-08T20:38:06.843Z,37.55
2023-10-08T20:40:45.433Z,40.40
2023-10-08T20:43:18.621Z,38.10
2023-10-08T20:45:46.555Z,37.92
2023-10-08T20:48:15.627Z,31.67
2023-10-08T20:50:43.261Z,40.40
2023-10-08T20:53:11.860Z,32.25
2023-10-08T20:55:42.745Z,34.28
2023-10-08T20:58:10.044Z,40.00
2023-10-08T21:00:46.406Z,38.70
2023-10-08T21:03:15.066Z,44.38
2023-10-08T21:05:43.840Z,43.47
2023-10-08T21:08:12.964Z,52.90
2023-10-08T21:10:57.431Z,46.00
2023-10-08T21:13:26.667Z,41.25
2023-10-08T21:15:53.522Z,35.47
2023-10-08T21:18:21.128Z,38.92
2023-10-08T21:20:51.204Z,36.70
2023-10-08T21:23:18.178Z,40.75
2023-10-08T21:25:48.543Z,66.28
2023-10-08T21:28:15.403Z,60.75
2023-10-08T21:30:44.932Z,59.67
2023-10-08T21:33:12.241Z,45.08
2023-10-08T21:35:39.547Z,35.00
2023-10-08T21:38:09.694Z,37.63
2023-10-08T21:40:37.490Z,40.40
2023-10-08T21:43:05.085Z,39.70
2023-10-08T21:45:32.586Z,38.25
2023-10-08T21:48:01.439Z,38.55
2023-10-08T21:50:28.823Z,37.55
2023-10-08T21:52:55.657Z,34.00
2023-10-08T21:55:25.144Z,37.25
2023-10-08T21:57:52.264Z,36.00
2023-10-08T22:00:23.450Z,39.22
2023-10-08T22:02:59.067Z,40.78
2023-10-08T22:05:31.826Z,41.90
2023-10-08T22:08:00.082Z,39.90
2023-10-08T22:10:29.389Z,33.55
2023-10-08T22:12:59.742Z,30.73
2023-10-08T22:15:30.284Z,33.45
2023-10-08T22:18:03.076Z,35.28
2023-10-08T22:20:39.064Z,32.97
2023-10-08T22:23:16.341Z,29.75
2023-10-08T22:25:52.450Z,26.05
2023-10-08T22:28:21.168Z,30.98
2023-10-08T22:30:55.449Z,28.10
2023-10-08T22:33:35.137Z,34.70
2023-10-08T22:36:12.346Z,29.63
2023-10-08T22:38:39.082Z,29.77
2023-10-08T22:41:05.632Z,31.48
2023-10-08T22:43:35.450Z,26.60
2023-10-08T22:46:07.700Z,29.63
2023-10-08T22:48:45.080Z,29.08
2023-10-08T22:51:39.156Z,29.42
2023-10-08T22:54:09.744Z,33.88
2023-10-08T22:56:36.471Z,29.98
2023-10-08T22:59:08.691Z,28.33
2023-10-08T23:01:39.446Z,32.42
2023-10-08T23:04:07.863Z,30.70
2023-10-08T23:06:35.558Z,36.53
2023-10-08T23:09:03.712Z,33.15
2023-10-08T23:11:30.517Z,29.35
2023-10-08T23:13:59.384Z,33.33
2023-10-08T23:16:30.405Z,31.50
2023-10-08T23:18:57.255Z,27.23
2023-10-08T23:21:26.788Z,24.55
2023-10-08T23:23:54.095Z,30.80
2023-10-08T23:26:22.045Z,28.95
2023-10-08T23:28:49.453Z,24.25
2023-10-08T23:31:18.617Z,18.08
2023-10-08T23:33:48.840Z,22.00
2023-10-08T23:36:18.038Z,20.15
2023-10-08T23:38:53.366Z,16.88
2023-10-08T23:41:32.639Z,17.88
2023-10-08T23:44:03.463Z,16.60
2023-10-08T23:46:34.502Z,19.70
2023-10-08T23:49:06.956Z,22.77
2023-10-08T23:54:15.546Z,18.88
2023-10-08T23:56:46.330Z,17.20
2023-10-08T23:59:18.083Z,21.77
